createdAt,value
2022-10-26T00:01:09.848Z,1.10
2022-10-26T00:03:38.450Z,1.27
2022-10-26T00:06:10.156Z,1.08
2022-10-26T00:08:38.101Z,1.85
2022-10-26T00:11:06.544Z,1.65
2022-10-26T00:13:34.651Z,1.90
2022-10-26T00:16:07.999Z,2.67
2022-10-26T00:18:35.558Z,1.12
2022-10-26T00:21:04.914Z,1.55
2022-10-26T00:23:32.800Z,2.83
2022-10-26T00:26:00.414Z,1.40
2022-10-26T00:28:28.273Z,2.55
2022-10-26T00:30:55.749Z,2.28
2022-10-26T00:33:23.156Z,2.70
2022-10-26T00:35:54.302Z,3.45
2022-10-26T00:38:21.956Z,1.75
2022-10-26T00:40:49.864Z,2.08
2022-10-26T00:43:20.525Z,1.75
2022-10-26T00:45:49.909Z,1.75
2022-10-26T00:48:23.876Z,1.67
2022-10-26T00:50:52.138Z,2.03
2022-10-26T00:53:20.115Z,2.50
2022-10-26T00:55:50.003Z,2.60
2022-10-26T00:58:18.147Z,1.33
2022-10-26T01:00:45.996Z,2.72
2022-10-26T01:03:13.511Z,0.90
2022-10-26T01:05:42.442Z,1.37
2022-10-26T01:08:10.587Z,1.33
2022-10-26T01:10:39.065Z,1.65
2022-10-26T01:13:06.597Z,2.47
2022-10-26T01:15:50.255Z,2.53
2022-10-26T01:18:35.530Z,1.83
2022-10-26T01:21:24.338Z,1.65
2022-10-26T01:24:11.297Z,1.37
2022-10-26T01:26:57.811Z,2.10
2022-10-26T01:29:59.564Z,1.48
2022-10-26T01:32:32.169Z,1.65
2022-10-26T01:35:11.661Z,1.75
2022-10-26T01:37:46.020Z,1.45
2022-10-26T01:40:21.840Z,2.37
2022-10-26T01:42:54.791Z,1.23
2022-10-26T01:45:22.477Z,1.67
2022-10-26T01:47:51.612Z,2.10
2022-10-26T01:50:19.940Z,2.05
2022-10-26T01:52:50.838Z,1.98
2022-10-26T01:55:43.554Z,1.30
2022-10-26T01:58:36.005Z,1.60
2022-10-26T02:01:30.114Z,1.55
2022-10-26T02:04:11.200Z,2.30
2022-10-26T02:06:49.260Z,1.62
2022-10-26T02:09:32.528Z,2.05
2022-10-26T02:12:03.496Z,1.15
2022-10-26T02:14:52.168Z,1.85
2022-10-26T02:17:32.458Z,2.15
2022-10-26T02:20:04.377Z,0.75
2022-10-26T02:22:44.577Z,2.05
2022-10-26T02:25:17.976Z,0.93
2022-10-26T02:27:48.244Z,1.27
2022-10-26T02:30:16.510Z,1.50
2022-10-26T02:32:48.803Z,0.95
2022-10-26T02:35:17.615Z,1.70
2022-10-26T02:37:47.041Z,2.08
2022-10-26T02:40:18.553Z,1.73
2022-10-26T02:42:46.964Z,1.20
2022-10-26T02:45:19.209Z,1.48
2022-10-26T02:47:47.426Z,1.62
2022-10-26T02:50:15.418Z,1.65
2022-10-26T02:52:52.469Z,1.48
2022-10-26T02:55:25.989Z,1.55
2022-10-26T02:58:00.771Z,1.65
2022-10-26T03:00:29.715Z,1.27
2022-10-26T03:02:58.952Z,0.98
2022-10-26T03:05:28.088Z,0.93
2022-10-26T03:07:56.349Z,0.57
2022-10-26T03:10:23.980Z,0.77
2022-10-26T03:12:52.367Z,1.33
2022-10-26T03:15:20.368Z,1.15
2022-10-26T03:17:48.139Z,0.85
2022-10-26T03:20:16.163Z,1.15
2022-10-26T03:22:43.896Z,1.33
2022-10-26T03:25:11.382Z,1.50
2022-10-26T03:27:39.051Z,1.08
2022-10-26T03:30:07.407Z,1.20
2022-10-26T03:32:34.864Z,1.77
2022-10-26T03:35:02.305Z,1.05
2022-10-26T03:37:30.047Z,1.77
2022-10-26T03:39:57.467Z,1.20
2022-10-26T03:42:24.865Z,1.85
2022-10-26T03:44:52.565Z,1.00
2022-10-26T03:47:19.978Z,0.85
2022-10-26T03:49:47.369Z,1.98
2022-10-26T03:52:15.077Z,0.47
2022-10-26T03:54:42.546Z,1.60
2022-10-26T03:57:09.980Z,1.92
2022-10-26T03:59:37.681Z,1.20
2022-10-26T04:02:05.146Z,3.00
2022-10-26T04:04:32.907Z,0.98
2022-10-26T04:07:00.423Z,1.42
2022-10-26T04:09:27.848Z,0.82
2022-10-26T04:11:55.615Z,0.82
2022-10-26T04:14:23.082Z,0.70
2022-10-26T04:16:50.464Z,0.95
2022-10-26T04:19:18.161Z,1.05
2022-10-26T04:21:45.576Z,1.75
2022-10-26T04:24:13.089Z,1.60
2022-10-26T04:26:40.777Z,0.40
2022-10-26T04:29:09.236Z,1.27
2022-10-26T04:31:36.675Z,1.00
2022-10-26T04:34:04.475Z,0.93
2022-10-26T04:36:31.917Z,1.65
2022-10-26T04:38:59.373Z,0.88
2022-10-26T04:41:27.210Z,1.23
2022-10-26T04:43:54.708Z,2.60
2022-10-26T04:46:22.090Z,2.00
2022-10-26T04:48:49.810Z,0.90
2022-10-26T04:51:17.429Z,1.23
2022-10-26T04:53:44.840Z,0.82
2022-10-26T04:56:12.583Z,0.60
2022-10-26T04:58:40.032Z,0.95
2022-10-26T05:01:07.512Z,1.48
2022-10-26T05:03:35.267Z,1.37
2022-10-26T05:06:02.707Z,1.17
2022-10-26T05:08:30.133Z,1.23
2022-10-26T05:10:57.880Z,1.65
2022-10-26T05:15:57.929Z,1.12
2022-10-26T05:18:26.356Z,1.35
2022-10-26T05:20:53.980Z,1.67
2022-10-26T05:23:22.400Z,1.23
2022-10-26T05:25:49.884Z,1.00
2022-10-26T05:28:17.610Z,1.25
2022-10-26T05:30:46.391Z,1.98
2022-10-26T05:33:14.746Z,0.93
2022-10-26T05:35:42.213Z,0.75
2022-10-26T05:38:11.377Z,1.85
2022-10-26T05:40:38.888Z,2.33
2022-10-26T05:43:06.365Z,1.17
2022-10-26T05:45:34.106Z,1.60
2022-10-26T05:48:02.793Z,2.28
2022-10-26T05:50:30.794Z,2.53
2022-10-26T05:52:58.499Z,2.00
2022-10-26T05:55:26.246Z,2.62
2022-10-26T05:57:53.861Z,1.20
2022-10-26T06:00:23.783Z,1.80
2022-10-26T06:03:06.809Z,1.85
2022-10-26T06:05:55.061Z,1.15
2022-10-26T06:08:24.239Z,1.33
2022-10-26T06:10:52.033Z,1.75
2022-10-26T06:13:19.717Z,1.80
2022-10-26T06:16:06.059Z,3.00
2022-10-26T06:18:58.242Z,2.58
2022-10-26T06:21:38.702Z,1.70
2022-10-26T06:24:14.606Z,2.28
2022-10-26T06:27:05.363Z,1.77
2022-10-26T06:29:46.224Z,2.53
2022-10-26T06:32:14.027Z,1.48
2022-10-26T06:34:46.196Z,2.65
2022-10-26T06:37:14.084Z,2.15
2022-10-26T06:39:48.863Z,1.50
2022-10-26T06:42:20.586Z,2.67
2022-10-26T06:44:48.649Z,2.45
2022-10-26T06:47:27.060Z,1.73
2022-10-26T06:50:03.008Z,2.78
2022-10-26T06:52:48.991Z,1.92
2022-10-26T06:55:17.115Z,3.08
2022-10-26T06:57:45.003Z,3.92
2022-10-26T07:00:21.722Z,2.70
2022-10-26T07:02:50.473Z,3.45
2022-10-26T07:05:18.105Z,3.25
2022-10-26T07:07:47.098Z,3.75
2022-10-26T07:10:15.824Z,3.50
2022-10-26T07:12:43.225Z,3.60
2022-10-26T07:15:10.886Z,3.22
2022-10-26T07:17:49.462Z,3.28
2022-10-26T07:20:19.447Z,4.32
2022-10-26T07:22:56.719Z,4.50
2022-10-26T07:25:25.869Z,3.37
2022-10-26T07:27:58.220Z,3.53
2022-10-26T07:30:27.004Z,2.72
2022-10-26T07:33:06.389Z,2.37
2022-10-26T07:35:34.339Z,3.40
2022-10-26T07:38:02.481Z,3.17
2022-10-26T07:40:30.225Z,2.62
2022-10-26T07:42:58.878Z,4.43
2022-10-26T07:45:27.999Z,5.18
2022-10-26T07:47:55.566Z,3.85
2022-10-26T07:50:23.625Z,3.78
2022-10-26T07:52:51.783Z,4.03
2022-10-26T07:55:20.205Z,2.95
2022-10-26T07:57:50.970Z,4.53
2022-10-26T08:00:22.430Z,3.42
2022-10-26T08:02:50.213Z,4.03
2022-10-26T08:05:18.096Z,4.37
2022-10-26T08:07:45.999Z,4.07
2022-10-26T08:10:14.679Z,4.28
2022-10-26T08:12:43.322Z,4.90
2022-10-26T08:15:11.283Z,4.62
2022-10-26T08:17:39.102Z,4.07
2022-10-26T08:20:07.095Z,5.15
2022-10-26T08:22:34.537Z,5.57
2022-10-26T08:25:02.242Z,5.20
2022-10-26T08:27:29.642Z,8.88
2022-10-26T08:29:57.100Z,6.72
2022-10-26T08:32:24.798Z,3.78
2022-10-26T08:34:52.456Z,3.72
2022-10-26T08:37:19.918Z,3.70
2022-10-26T08:39:49.269Z,5.32
2022-10-26T08:42:24.776Z,6.22
2022-10-26T08:44:58.584Z,4.20
2022-10-26T08:47:30.644Z,6.22
2022-10-26T08:50:00.274Z,7.60
2022-10-26T08:52:40.710Z,9.48
2022-10-26T08:55:14.657Z,8.18
2022-10-26T08:57:42.566Z,10.07
2022-10-26T09:00:17.716Z,8.18
2022-10-26T09:02:45.247Z,9.43
2022-10-26T09:05:36.048Z,8.00
2022-10-26T09:08:10.199Z,10.90
2022-10-26T09:11:07.543Z,7.00
2022-10-26T09:14:02.632Z,6.20
2022-10-26T09:16:53.250Z,4.68
2022-10-26T09:19:47.855Z,5.65
2022-10-26T09:22:24.625Z,3.50
2022-10-26T09:24:55.087Z,2.92
2022-10-26T09:27:41.385Z,4.18
2022-10-26T09:30:17.691Z,4.87
2022-10-26T09:32:50.969Z,3.58
2022-10-26T09:35:23.853Z,3.12
2022-10-26T09:38:11.509Z,4.62
2022-10-26T09:40:56.423Z,4.22
2022-10-26T09:43:37.050Z,3.85
2022-10-26T09:46:04.633Z,6.70
2022-10-26T09:48:46.710Z,5.20
2022-10-26T09:51:16.610Z,4.78
2022-10-26T09:53:44.393Z,6.90
2022-10-26T09:56:15.501Z,5.47
2022-10-26T09:58:48.744Z,6.20
2022-10-26T10:01:36.897Z,6.40
2022-10-26T10:04:13.531Z,7.18
2022-10-26T10:06:41.298Z,5.50
2022-10-26T10:09:12.684Z,5.53
2022-10-26T10:12:02.568Z,7.90
2022-10-26T10:14:36.114Z,4.60
2022-10-26T10:17:20.098Z,5.18
2022-10-26T10:19:47.823Z,5.68
2022-10-26T10:22:15.195Z,4.95
2022-10-26T10:24:43.921Z,6.55
2022-10-26T10:27:17.462Z,5.90
2022-10-26T10:29:47.899Z,5.50
2022-10-26T10:32:23.878Z,5.07
2022-10-26T10:34:52.529Z,5.05
2022-10-26T10:37:30.583Z,4.93
2022-10-26T10:39:58.578Z,5.87
2022-10-26T10:42:30.162Z,5.62
2022-10-26T10:44:57.957Z,6.93
2022-10-26T10:47:28.675Z,6.37
2022-10-26T10:50:04.491Z,8.73
2022-10-26T10:52:34.201Z,6.15
2022-10-26T10:55:13.612Z,8.32
2022-10-26T10:57:43.917Z,5.32
2022-10-26T11:00:13.092Z,4.22
2022-10-26T11:03:09.068Z,5.20
2022-10-26T11:05:58.828Z,4.55
2022-10-26T11:08:30.973Z,6.22
2022-10-26T11:11:02.623Z,5.47
2022-10-26T11:13:34.363Z,4.40
2022-10-26T11:16:11.369Z,3.65
2022-10-26T11:19:04.772Z,5.82
2022-10-26T11:21:37.844Z,7.05
2022-10-26T11:24:23.227Z,6.05
2022-10-26T11:26:56.792Z,5.18
2022-10-26T11:29:24.611Z,6.47
2022-10-26T11:32:13.790Z,7.07
2022-10-26T11:34:46.814Z,8.88
2022-10-26T11:37:19.429Z,6.07
2022-10-26T11:40:02.004Z,4.30
2022-10-26T11:42:47.272Z,4.80
2022-10-26T11:48:00.657Z,6.80
2022-10-26T11:50:34.812Z,5.35
2022-10-26T11:53:08.686Z,5.47
2022-10-26T11:55:36.970Z,6.05
2022-10-26T11:58:04.730Z,5.15
2022-10-26T12:00:33.508Z,4.40
2022-10-26T12:03:08.334Z,5.82
2022-10-26T12:05:38.609Z,6.30
2022-10-26T12:08:12.436Z,5.90
2022-10-26T12:10:42.363Z,4.68
2022-10-26T12:13:27.479Z,6.78
2022-10-26T12:16:07.487Z,8.20
2022-10-26T12:18:55.101Z,9.70
2022-10-26T12:21:31.565Z,8.38
2022-10-26T12:24:01.865Z,8.27
2022-10-26T12:26:29.344Z,11.95
2022-10-26T12:29:02.660Z,11.18
2022-10-26T12:31:36.422Z,6.55
2022-10-26T12:34:05.469Z,6.07
2022-10-26T12:36:55.122Z,7.30
2022-10-26T12:39:41.623Z,8.93
2022-10-26T12:42:11.360Z,7.10
2022-10-26T12:44:48.350Z,5.65
2022-10-26T12:47:28.088Z,4.90
2022-10-26T12:50:24.552Z,5.15
2022-10-26T12:53:01.459Z,4.57
2022-10-26T12:55:50.124Z,4.55
2022-10-26T12:58:29.849Z,4.55
2022-10-26T13:01:00.372Z,5.82
2022-10-26T13:03:34.197Z,5.03
2022-10-26T13:06:10.853Z,3.97
2022-10-26T13:08:43.376Z,4.90
2022-10-26T13:11:17.569Z,4.00
2022-10-26T13:13:45.957Z,4.82
2022-10-26T13:16:16.459Z,3.10
2022-10-26T13:18:45.592Z,3.35
2022-10-26T13:21:18.301Z,4.72
2022-10-26T13:23:54.011Z,3.30
2022-10-26T13:26:26.994Z,3.60
2022-10-26T13:28:59.401Z,4.57
2022-10-26T13:31:34.956Z,5.93
2022-10-26T13:36:54.160Z,3.42
2022-10-26T13:39:31.886Z,4.72
2022-10-26T13:42:00.077Z,5.90
2022-10-26T13:44:47.717Z,5.47
2022-10-26T13:47:22.618Z,3.78
2022-10-26T13:49:53.085Z,3.50
2022-10-26T13:52:30.644Z,4.00
2022-10-26T13:55:06.070Z,5.10
2022-10-26T13:57:43.307Z,5.32
2022-10-26T14:00:18.001Z,5.82
2022-10-26T14:02:45.827Z,4.53
2022-10-26T14:05:16.980Z,5.87
2022-10-26T14:07:54.153Z,4.57
2022-10-26T14:10:28.838Z,5.15
2022-10-26T14:12:56.878Z,4.60
2022-10-26T14:15:32.956Z,3.00
2022-10-26T14:18:02.012Z,4.28
2022-10-26T14:20:31.702Z,5.78
2022-10-26T14:22:59.119Z,4.07
2022-10-26T14:25:48.046Z,5.22
2022-10-26T14:28:28.089Z,6.00
2022-10-26T14:31:21.022Z,4.55
2022-10-26T14:33:48.811Z,4.95
2022-10-26T14:36:17.134Z,3.90
2022-10-26T14:38:50.762Z,4.72
2022-10-26T14:41:19.521Z,5.30
2022-10-26T14:43:47.330Z,3.28
2022-10-26T14:46:16.463Z,3.70
2022-10-26T14:48:52.323Z,2.95
2022-10-26T14:51:22.435Z,3.65
2022-10-26T14:53:55.306Z,4.18
2022-10-26T14:56:39.134Z,3.55
2022-10-26T14:59:27.946Z,4.22
2022-10-26T15:01:58.121Z,3.30
2022-10-26T15:04:36.653Z,4.28
2022-10-26T15:07:13.060Z,5.10
2022-10-26T15:09:50.253Z,3.83
2022-10-26T15:12:36.517Z,3.15
2022-10-26T15:15:11.242Z,3.87
2022-10-26T15:17:42.097Z,4.53
2022-10-26T15:20:17.884Z,4.32
2022-10-26T15:23:10.358Z,4.62
2022-10-26T15:25:39.278Z,4.40
2022-10-26T15:28:31.613Z,4.72
2022-10-26T15:31:04.844Z,5.43
2022-10-26T15:33:33.697Z,4.53
2022-10-26T15:36:08.205Z,4.22
2022-10-26T15:38:36.537Z,5.15
2022-10-26T15:41:06.596Z,4.75
2022-10-26T15:43:34.616Z,4.30
2022-10-26T15:46:02.250Z,3.35
2022-10-26T15:48:34.282Z,3.03
2022-10-26T15:51:01.865Z,3.33
2022-10-26T15:53:30.507Z,3.55
2022-10-26T15:55:59.783Z,2.90
2022-10-26T15:58:29.662Z,3.30
2022-10-26T16:00:57.304Z,3.47
2022-10-26T16:03:26.646Z,4.78
2022-10-26T16:05:59.413Z,6.97
2022-10-26T16:08:30.297Z,5.90
2022-10-26T16:10:57.937Z,7.30
2022-10-26T16:13:26.712Z,5.30
2022-10-26T16:15:54.419Z,6.20
2022-10-26T16:18:22.002Z,4.65
2022-10-26T16:20:49.559Z,6.00
2022-10-26T16:23:17.442Z,5.62
2022-10-26T16:25:46.716Z,28.98
2022-10-26T16:28:16.634Z,59.15
2022-10-26T16:30:44.819Z,13.80
2022-10-26T16:33:14.232Z,10.43
2022-10-26T16:35:42.149Z,9.88
2022-10-26T16:38:10.027Z,5.25
2022-10-26T16:40:37.607Z,5.87
2022-10-26T16:43:05.209Z,4.85
2022-10-26T16:45:33.244Z,5.07
2022-10-26T16:48:05.682Z,5.62
2022-10-26T16:50:36.288Z,4.90
2022-10-26T16:53:04.406Z,3.75
2022-10-26T16:55:32.750Z,4.60
2022-10-26T16:58:01.666Z,3.90
2022-10-26T17:00:29.362Z,6.30
2022-10-26T17:02:56.785Z,4.97
2022-10-26T17:05:24.933Z,6.32
2022-10-26T17:07:52.822Z,5.43
2022-10-26T17:10:21.097Z,4.10
2022-10-26T17:12:49.248Z,5.85
2022-10-26T17:15:19.786Z,7.57
2022-10-26T17:17:48.249Z,10.60
2022-10-26T17:20:17.107Z,7.37
2022-10-26T17:22:44.745Z,3.78
2022-10-26T17:25:12.326Z,5.85
2022-10-26T17:27:44.805Z,5.28
2022-10-26T17:30:15.339Z,4.90
2022-10-26T17:32:43.221Z,3.58
2022-10-26T17:35:10.876Z,5.25
2022-10-26T17:37:40.913Z,4.97
2022-10-26T17:40:09.469Z,2.75
2022-10-26T17:42:37.324Z,3.40
2022-10-26T17:45:05.254Z,4.68
2022-10-26T17:47:33.100Z,2.83
2022-10-26T17:50:00.682Z,4.53
2022-10-26T17:52:28.281Z,3.42
2022-10-26T17:54:58.091Z,3.67
2022-10-26T17:57:28.338Z,2.45
2022-10-26T17:59:56.643Z,4.37
2022-10-26T18:02:24.386Z,2.60
2022-10-26T18:04:52.396Z,3.33
2022-10-26T18:07:20.160Z,2.40
2022-10-26T18:09:47.834Z,2.95
2022-10-26T18:12:15.702Z,3.42
2022-10-26T18:14:43.379Z,3.78
2022-10-26T18:17:12.030Z,4.50
2022-10-26T18:19:39.961Z,3.28
2022-10-26T18:22:08.271Z,4.37
2022-10-26T18:24:37.409Z,3.20
2022-10-26T18:27:05.358Z,3.50
2022-10-26T18:29:36.142Z,3.15
2022-10-26T18:32:06.655Z,6.55
2022-10-26T18:34:34.660Z,6.93
2022-10-26T18:37:02.330Z,4.40
2022-10-26T18:39:30.369Z,3.10
2022-10-26T18:41:58.583Z,4.07
2022-10-26T18:44:26.203Z,4.05
2022-10-26T18:46:54.163Z,2.95
2022-10-26T18:49:22.508Z,4.10
2022-10-26T18:51:51.002Z,4.45
2022-10-26T18:54:18.923Z,4.07
2022-10-26T18:56:46.593Z,3.83
2022-10-26T18:59:14.232Z,4.28
2022-10-26T19:01:42.696Z,2.58
2022-10-26T19:04:11.166Z,4.05
2022-10-26T19:06:41.417Z,4.70
2022-10-26T19:09:10.325Z,4.37
2022-10-26T19:11:38.344Z,4.40
2022-10-26T19:14:07.624Z,3.35
2022-10-26T19:16:51.369Z,3.33
2022-10-26T19:19:20.071Z,4.55
2022-10-26T19:21:49.381Z,3.95
2022-10-26T19:24:22.198Z,2.80
2022-10-26T19:26:51.251Z,4.40
2022-10-26T19:29:19.656Z,4.22
2022-10-26T19:31:50.582Z,5.28
2022-10-26T19:34:19.724Z,3.62
2022-10-26T19:36:49.234Z,5.78
2022-10-26T19:39:18.458Z,5.05
2022-10-26T19:41:46.922Z,5.35
2022-10-26T19:44:16.073Z,4.22
2022-10-26T19:46:46.607Z,4.43
2022-10-26T19:49:17.582Z,5.70
2022-10-26T19:51:47.941Z,5.28
2022-10-26T19:54:15.976Z,4.68
2022-10-26T19:56:43.571Z,6.00
2022-10-26T19:59:11.419Z,4.60
2022-10-26T20:01:39.511Z,4.00
2022-10-26T20:04:07.451Z,4.15
2022-10-26T20:06:35.096Z,5.30
2022-10-26T20:09:04.048Z,6.03
2022-10-26T20:11:36.637Z,6.57
2022-10-26T20:14:06.426Z,4.80
2022-10-26T20:16:34.407Z,5.20
2022-10-26T20:19:02.147Z,3.53
2022-10-26T20:21:29.920Z,4.35
2022-10-26T20:23:57.834Z,4.45
2022-10-26T20:26:28.317Z,2.92
2022-10-26T20:28:56.330Z,3.53
2022-10-26T20:31:24.374Z,3.90
2022-10-26T20:33:52.837Z,4.75
2022-10-26T20:36:20.921Z,5.40
2022-10-26T20:38:50.125Z,4.62
2022-10-26T20:41:19.199Z,4.82
2022-10-26T20:43:48.068Z,4.28
2022-10-26T20:46:25.267Z,7.20
2022-10-26T20:48:54.371Z,8.32
2022-10-26T20:51:29.396Z,5.93
2022-10-26T20:54:18.697Z,5.10
2022-10-26T20:56:48.138Z,4.95
2022-10-26T20:59:38.078Z,7.03
2022-10-26T21:02:09.657Z,4.25
2022-10-26T21:04:37.336Z,4.45
2022-10-26T21:07:05.344Z,4.95
2022-10-26T21:09:36.541Z,4.80
2022-10-26T21:12:04.785Z,5.22
2022-10-26T21:14:36.635Z,5.00
2022-10-26T21:17:04.382Z,3.78
2022-10-26T21:19:31.858Z,4.95
2022-10-26T21:21:59.362Z,4.75
2022-10-26T21:24:27.066Z,4.18
2022-10-26T21:26:55.181Z,5.18
2022-10-26T21:29:22.999Z,3.62
2022-10-26T21:31:51.984Z,4.95
2022-10-26T21:34:20.100Z,6.37
2022-10-26T21:36:47.591Z,5.53
2022-10-26T21:39:15.343Z,5.65
2022-10-26T21:41:43.937Z,4.28
2022-10-26T21:44:24.721Z,4.28
2022-10-26T21:46:59.779Z,5.05
2022-10-26T21:49:27.666Z,5.80
2022-10-26T21:51:55.101Z,4.60
2022-10-26T21:54:22.820Z,5.82
2022-10-26T21:56:50.215Z,5.00
2022-10-26T21:59:17.653Z,5.15
2022-10-26T22:01:45.494Z,5.30
2022-10-26T22:04:13.307Z,6.25
2022-10-26T22:06:41.221Z,3.83
2022-10-26T22:09:08.663Z,6.32
2022-10-26T22:11:36.340Z,5.12
2022-10-26T22:14:03.778Z,6.00
2022-10-26T22:16:32.279Z,5.47
2022-10-26T22:19:04.416Z,7.57
2022-10-26T22:21:35.594Z,7.45
2022-10-26T22:24:03.920Z,7.35
2022-10-26T22:26:33.737Z,5.50
2022-10-26T22:29:01.206Z,5.25
2022-10-26T22:34:07.620Z,4.50
2022-10-26T22:36:36.129Z,4.12
2022-10-26T22:39:04.064Z,4.47
2022-10-26T22:41:31.763Z,5.32
2022-10-26T22:43:59.680Z,2.87
2022-10-26T22:46:28.220Z,5.03
2022-10-26T22:49:00.772Z,5.72
2022-10-26T22:51:31.105Z,6.05
2022-10-26T22:54:00.114Z,4.90
2022-10-26T22:56:28.368Z,5.03
2022-10-26T22:58:57.334Z,5.80
2022-10-26T23:01:31.268Z,5.68
2022-10-26T23:04:00.175Z,4.57
2022-10-26T23:06:30.123Z,5.65
2022-10-26T23:08:57.926Z,6.43
2022-10-26T23:11:27.819Z,7.00
2022-10-26T23:13:59.961Z,7.00
2022-10-26T23:16:28.751Z,6.28
2022-10-26T23:18:56.326Z,5.37
2022-10-26T23:23:57.999Z,5.75
2022-10-26T23:26:25.662Z,7.35
2022-10-26T23:28:53.066Z,5.57
2022-10-26T23:31:22.595Z,6.43
2022-10-26T23:33:50.577Z,7.72
2022-10-26T23:36:18.064Z,5.62
2022-10-26T23:38:46.238Z,5.60
2022-10-26T23:41:13.935Z,7.18
2022-10-26T23:43:41.683Z,6.10
2022-10-26T23:46:09.610Z,5.90
2022-10-26T23:48:37.095Z,5.75
2022-10-26T23:51:04.537Z,7.37
2022-10-26T23:53:32.615Z,6.35
2022-10-26T23:56:00.021Z,5.60
2022-10-26T23:58:27.452Z,7.18
